createdAt,value
2018-11-11T00:02:24.771Z,30.50
2018-11-11T00:04:52.980Z,31.23
2018-11-11T00:07:21.190Z,32.75
2018-11-11T00:09:49.394Z,32.50
2018-11-11T00:12:17.633Z,27.25
2018-11-11T00:14:45.848Z,26.93
2018-11-11T00:17:14.458Z,26.93
2018-11-11T00:19:42.668Z,29.27
2018-11-11T00:22:10.919Z,25.48
2018-11-11T00:24:39.144Z,24.30
2018-11-11T00:27:07.467Z,28.47
2018-11-11T00:29:35.823Z,26.62
2018-11-11T00:32:04.040Z,32.17
2018-11-11T00:34:32.358Z,22.00
2018-11-11T00:37:00.561Z,26.90
2018-11-11T00:39:28.783Z,32.10
2018-11-11T00:41:56.999Z,24.10
2018-11-11T00:44:25.199Z,27.20
2018-11-11T00:46:53.402Z,27.95
2018-11-11T00:49:21.606Z,25.55
2018-11-11T00:51:49.822Z,29.90
2018-11-11T00:54:18.044Z,23.87
2018-11-11T00:56:46.250Z,20.32
2018-11-11T00:59:14.447Z,23.55
2018-11-11T01:01:42.660Z,29.55
2018-11-11T01:04:10.867Z,28.90
2018-11-11T01:06:39.083Z,30.25
2018-11-11T01:09:07.314Z,24.30
2018-11-11T01:11:35.522Z,31.60
2018-11-11T01:14:03.775Z,27.85
2018-11-11T01:16:32.174Z,23.38
2018-11-11T01:19:00.378Z,24.37
2018-11-11T01:21:28.585Z,26.82
2018-11-11T01:23:56.814Z,21.50
2018-11-11T01:26:25.456Z,27.37
2018-11-11T01:28:53.672Z,32.85
2018-11-11T01:31:21.903Z,24.98
2018-11-11T01:33:50.115Z,27.25
2018-11-11T01:36:18.326Z,22.70
2018-11-11T01:38:46.528Z,21.48
2018-11-11T01:41:14.738Z,27.85
2018-11-11T01:43:42.946Z,28.40
2018-11-11T01:46:11.153Z,33.67
2018-11-11T01:48:39.368Z,24.02
2018-11-11T01:51:08.136Z,29.25
2018-11-11T01:53:36.341Z,25.62
2018-11-11T01:56:04.546Z,27.10
2018-11-11T01:58:32.766Z,24.67
2018-11-11T02:01:00.974Z,26.77
2018-11-11T02:03:29.187Z,24.32
2018-11-11T02:05:57.422Z,23.92
2018-11-11T02:08:25.642Z,21.82
2018-11-11T02:10:53.848Z,24.57
2018-11-11T02:13:22.056Z,19.92
2018-11-11T02:15:50.564Z,24.02
2018-11-11T02:18:18.775Z,22.55
2018-11-11T02:20:46.982Z,22.58
2018-11-11T02:23:15.191Z,23.83
2018-11-11T02:25:43.448Z,33.65
2018-11-11T02:28:11.670Z,20.72
2018-11-11T02:30:39.879Z,24.47
2018-11-11T02:33:08.083Z,20.20
2018-11-11T02:35:36.294Z,21.45
2018-11-11T02:38:04.502Z,27.45
2018-11-11T02:40:32.707Z,37.40
2018-11-11T02:43:00.910Z,21.85
2018-11-11T02:45:29.130Z,30.82
2018-11-11T02:47:57.368Z,29.67
2018-11-11T02:50:25.600Z,25.50
2018-11-11T02:52:53.814Z,22.95
2018-11-11T02:55:22.035Z,30.80
2018-11-11T02:57:50.238Z,27.32
2018-11-11T03:00:19.765Z,32.53
2018-11-11T03:02:48.458Z,29.82
2018-11-11T03:05:17.565Z,34.05
2018-11-11T03:07:45.782Z,32.05
2018-11-11T03:10:15.147Z,39.38
2018-11-11T03:12:43.838Z,28.55
2018-11-11T03:15:12.956Z,30.80
2018-11-11T03:17:41.210Z,31.30
2018-11-11T03:20:10.159Z,22.67
2018-11-11T03:22:38.400Z,27.13
2018-11-11T03:25:07.727Z,28.57
2018-11-11T03:27:35.952Z,29.98
2018-11-11T03:30:04.664Z,29.35
2018-11-11T03:32:32.879Z,29.12
2018-11-11T03:35:01.091Z,27.90
2018-11-11T03:37:29.298Z,35.45
2018-11-11T03:39:57.503Z,32.98
2018-11-11T03:42:25.714Z,27.85
2018-11-11T03:44:53.982Z,39.63
2018-11-11T03:47:22.197Z,37.00
2018-11-11T03:49:50.409Z,35.38
2018-11-11T03:52:18.622Z,35.85
2018-11-11T03:54:46.882Z,35.83
2018-11-11T03:57:15.082Z,27.22
2018-11-11T03:59:43.282Z,30.55
2018-11-11T04:02:11.491Z,29.30
2018-11-11T04:04:39.702Z,29.50
2018-11-11T04:07:07.903Z,39.58
2018-11-11T04:09:36.144Z,29.20
2018-11-11T04:12:04.369Z,31.55
2018-11-11T04:14:32.591Z,32.83
2018-11-11T04:17:00.800Z,39.05
2018-11-11T04:19:29.019Z,29.87
2018-11-11T04:21:57.229Z,22.93
2018-11-11T04:24:25.490Z,32.85
2018-11-11T04:26:53.699Z,25.40
2018-11-11T04:29:21.907Z,27.52
2018-11-11T04:31:50.166Z,29.05
2018-11-11T04:34:18.378Z,29.42
2018-11-11T04:36:46.582Z,25.77
2018-11-11T04:39:15.106Z,21.77
2018-11-11T04:41:43.242Z,24.67
2018-11-11T04:44:11.451Z,23.30
2018-11-11T04:46:39.657Z,25.17
2018-11-11T04:49:07.873Z,33.55
2018-11-11T04:51:36.110Z,32.30
2018-11-11T04:54:04.814Z,29.67
2018-11-11T04:56:33.038Z,28.80
2018-11-11T04:59:01.262Z,25.30
2018-11-11T05:01:29.485Z,36.35
2018-11-11T05:03:57.714Z,27.20
2018-11-11T05:06:25.922Z,34.50
2018-11-11T05:08:54.139Z,24.27
2018-11-11T05:11:22.395Z,28.80
2018-11-11T05:13:50.654Z,27.75
2018-11-11T05:16:18.867Z,29.63
2018-11-11T05:18:47.083Z,26.40
2018-11-11T05:21:15.282Z,30.90
2018-11-11T05:23:43.482Z,35.63
2018-11-11T05:26:11.690Z,27.22
2018-11-11T05:28:39.900Z,36.90
2018-11-11T05:31:08.119Z,53.48
2018-11-11T05:33:36.326Z,39.18
2018-11-11T05:36:05.102Z,41.05
2018-11-11T05:38:33.306Z,32.15
2018-11-11T05:41:01.512Z,32.48
2018-11-11T05:43:29.726Z,33.33
2018-11-11T05:45:57.935Z,30.82
2018-11-11T05:48:26.415Z,30.65
2018-11-11T05:50:54.623Z,26.12
2018-11-11T05:53:22.833Z,28.55
2018-11-11T05:55:51.046Z,31.27
2018-11-11T05:58:19.251Z,31.48
2018-11-11T06:00:47.459Z,35.17
2018-11-11T06:03:15.662Z,43.38
2018-11-11T06:05:43.939Z,40.60
2018-11-11T06:08:12.143Z,41.48
2018-11-11T06:10:40.361Z,41.33
2018-11-11T06:13:08.570Z,38.88
2018-11-11T06:15:36.781Z,52.10
2018-11-11T06:18:05.391Z,43.80
2018-11-11T06:20:33.608Z,48.90
2018-11-11T06:23:01.814Z,48.15
2018-11-11T06:25:30.034Z,55.03
2018-11-11T06:27:58.238Z,60.43
2018-11-11T06:30:26.446Z,58.52
2018-11-11T06:32:54.678Z,57.17
2018-11-11T06:35:22.902Z,67.97
2018-11-11T06:37:51.134Z,60.80
2018-11-11T06:40:19.341Z,55.90
2018-11-11T06:42:47.559Z,68.80
2018-11-11T06:45:15.819Z,58.70
2018-11-11T06:47:44.660Z,72.42
2018-11-11T06:50:13.962Z,70.35
2018-11-11T06:52:42.679Z,64.30
2018-11-11T06:55:11.126Z,78.28
2018-11-11T06:57:39.860Z,64.70
2018-11-11T07:00:09.211Z,57.35
2018-11-11T07:02:38.803Z,64.58
2018-11-11T07:05:07.726Z,50.65
2018-11-11T07:07:36.208Z,57.62
2018-11-11T07:10:04.734Z,53.65
2018-11-11T07:12:32.942Z,61.35
2018-11-11T07:15:01.150Z,56.88
2018-11-11T07:17:29.361Z,58.87
2018-11-11T07:19:57.563Z,61.73
2018-11-11T07:22:25.852Z,50.17
2018-11-11T07:24:54.071Z,47.88
2018-11-11T07:27:22.392Z,53.38
2018-11-11T07:29:50.623Z,58.63
2018-11-11T07:32:18.838Z,48.95
2018-11-11T07:34:47.057Z,52.30
2018-11-11T07:37:15.259Z,44.58
2018-11-11T07:39:43.463Z,45.75
2018-11-11T07:42:11.705Z,43.95
2018-11-11T07:44:39.974Z,47.13
2018-11-11T07:47:08.183Z,37.67
2018-11-11T07:49:36.410Z,44.20
2018-11-11T07:52:05.944Z,44.00
2018-11-11T07:54:34.151Z,32.83
2018-11-11T07:57:02.359Z,38.70
2018-11-11T07:59:30.583Z,41.10
2018-11-11T08:01:58.857Z,34.45
2018-11-11T08:04:27.053Z,32.90
2018-11-11T08:06:55.267Z,27.95
2018-11-11T08:09:23.466Z,31.73
2018-11-11T08:12:01.590Z,22.40
2018-11-11T08:14:30.344Z,25.72
2018-11-11T08:16:58.799Z,20.48
2018-11-11T08:19:27.194Z,16.73
2018-11-11T08:21:55.424Z,22.15
2018-11-11T08:24:23.867Z,20.30
2018-11-11T08:26:52.542Z,12.85
2018-11-11T08:29:20.992Z,37.80
2018-11-11T08:31:49.325Z,20.95
2018-11-11T08:34:17.582Z,16.42
2018-11-11T08:36:46.419Z,20.90
2018-11-11T08:39:15.374Z,16.57
2018-11-11T08:41:44.620Z,19.90
2018-11-11T08:44:18.260Z,22.10
2018-11-11T08:46:47.682Z,16.35
2018-11-11T08:49:16.427Z,18.57
2018-11-11T08:51:44.713Z,45.45
2018-11-11T08:54:12.962Z,27.30
2018-11-11T08:56:41.291Z,32.48
2018-11-11T08:59:09.511Z,21.00
2018-11-11T09:01:37.794Z,28.00
2018-11-11T09:04:06.233Z,28.30
2018-11-11T09:06:34.442Z,26.57
2018-11-11T09:09:02.732Z,28.10
2018-11-11T09:11:31.016Z,27.55
2018-11-11T09:13:59.254Z,27.98
2018-11-11T09:16:27.474Z,31.37
2018-11-11T09:18:55.694Z,36.48
2018-11-11T09:21:23.941Z,35.15
2018-11-11T09:23:52.206Z,37.35
2018-11-11T09:26:20.387Z,39.30
2018-11-11T09:28:48.652Z,40.75
2018-11-11T09:31:16.876Z,41.85
2018-11-11T09:33:45.149Z,34.92
2018-11-11T09:36:13.390Z,48.40
2018-11-11T09:38:41.603Z,40.28
2018-11-11T09:41:10.046Z,41.35
2018-11-11T09:43:38.299Z,44.18
2018-11-11T09:46:06.615Z,49.25
2018-11-11T09:48:34.830Z,48.83
2018-11-11T09:51:03.047Z,49.45
2018-11-11T09:53:31.267Z,59.60
2018-11-11T09:55:59.474Z,48.98
2018-11-11T09:58:27.746Z,52.43
2018-11-11T10:00:55.916Z,46.18
2018-11-11T10:03:32.952Z,48.35
2018-11-11T10:08:07.907Z,62.95
2018-11-11T10:10:41.618Z,52.13
2018-11-11T10:13:20.194Z,56.75
2018-11-11T10:16:01.195Z,65.10
2018-11-11T10:18:42.221Z,61.00
2018-11-11T10:21:46.015Z,61.33
2018-11-11T10:24:19.772Z,57.80
2018-11-11T10:26:52.408Z,67.50
2018-11-11T10:29:25.052Z,61.37
2018-11-11T10:31:59.319Z,68.83
2018-11-11T10:34:32.942Z,62.80
2018-11-11T10:37:07.605Z,68.07
2018-11-11T10:39:41.856Z,63.42
2018-11-11T10:42:15.879Z,70.62
2018-11-11T10:45:03.060Z,71.22
2018-11-11T10:47:38.990Z,70.72
2018-11-11T10:50:09.155Z,83.92
2018-11-11T10:52:37.379Z,72.62
2018-11-11T10:55:05.611Z,69.27
2018-11-11T10:57:33.822Z,76.70
2018-11-11T11:00:02.748Z,76.65
2018-11-11T11:02:36.402Z,69.27
2018-11-11T11:05:09.570Z,63.98
2018-11-11T11:07:37.814Z,67.08
2018-11-11T11:10:06.591Z,79.87
2018-11-11T11:12:34.854Z,85.87
2018-11-11T11:15:03.959Z,64.10
2018-11-11T11:17:32.496Z,68.80
2018-11-11T11:20:00.702Z,80.50
2018-11-11T11:22:28.915Z,65.50
2018-11-11T11:24:57.115Z,60.78
2018-11-11T11:27:25.384Z,65.95
2018-11-11T11:29:53.570Z,67.12
2018-11-11T11:32:21.793Z,73.52
2018-11-11T11:34:50.007Z,67.45
2018-11-11T11:37:18.211Z,67.17
2018-11-11T11:39:46.423Z,79.65
2018-11-11T11:42:14.633Z,79.35
2018-11-11T11:44:42.834Z,71.92
2018-11-11T11:47:11.085Z,65.92
2018-11-11T11:49:39.298Z,60.70
2018-11-11T11:52:07.559Z,70.85
2018-11-11T11:54:35.746Z,73.62
2018-11-11T11:57:03.951Z,62.85
2018-11-11T11:59:32.148Z,71.60
2018-11-11T12:02:00.406Z,58.42
2018-11-11T12:04:28.620Z,63.48
2018-11-11T12:06:56.831Z,61.05
2018-11-11T12:09:25.066Z,64.00
2018-11-11T12:11:53.282Z,62.00
2018-11-11T12:14:21.629Z,68.62
2018-11-11T12:16:49.889Z,86.70
2018-11-11T12:19:18.067Z,59.67
2018-11-11T12:21:46.277Z,56.92
2018-11-11T12:24:14.483Z,67.58
2018-11-11T12:26:42.755Z,65.32
2018-11-11T12:29:10.958Z,65.55
2018-11-11T12:31:41.781Z,74.07
2018-11-11T12:34:11.001Z,65.87
2018-11-11T12:36:40.344Z,65.47
2018-11-11T12:39:11.188Z,61.73
2018-11-11T12:41:41.572Z,55.25
2018-11-11T12:44:10.450Z,70.10
2018-11-11T12:46:38.853Z,62.93
2018-11-11T12:49:07.144Z,63.68
2018-11-11T12:51:36.069Z,60.67
2018-11-11T12:54:05.014Z,48.87
2018-11-11T12:56:33.827Z,54.53
2018-11-11T12:59:03.589Z,43.33
2018-11-11T13:01:33.728Z,45.40
2018-11-11T13:04:02.508Z,45.80
2018-11-11T13:06:35.150Z,44.03
2018-11-11T13:09:04.643Z,41.90
2018-11-11T13:11:34.466Z,36.98
2018-11-11T13:14:02.940Z,33.50
2018-11-11T13:16:31.152Z,26.87
2018-11-11T13:18:59.434Z,37.60
2018-11-11T13:21:27.647Z,27.58
2018-11-11T13:23:55.862Z,29.95
2018-11-11T13:26:24.070Z,22.45
2018-11-11T13:28:52.366Z,32.95
2018-11-11T13:31:20.578Z,24.43
2018-11-11T13:33:48.799Z,30.05
2018-11-11T13:36:17.070Z,28.73
2018-11-11T13:38:45.281Z,27.65
2018-11-11T13:41:13.528Z,28.90
2018-11-11T13:43:41.770Z,36.38
2018-11-11T13:46:10.039Z,36.03
2018-11-11T13:48:38.311Z,29.45
2018-11-11T13:51:06.928Z,34.80
2018-11-11T13:53:35.147Z,31.42
2018-11-11T13:56:03.383Z,44.85
2018-11-11T13:58:31.605Z,32.95
2018-11-11T14:00:59.806Z,35.20
2018-11-11T14:03:28.038Z,34.08
2018-11-11T14:05:56.263Z,34.63
2018-11-11T14:08:24.586Z,34.30
2018-11-11T14:10:52.821Z,46.10
2018-11-11T14:13:21.019Z,31.45
2018-11-11T14:15:49.350Z,30.48
2018-11-11T14:18:17.763Z,27.80
2018-11-11T14:20:45.843Z,30.52
2018-11-11T14:23:14.054Z,25.05
2018-11-11T14:25:42.266Z,26.37
2018-11-11T14:28:10.492Z,30.37
2018-11-11T14:30:38.698Z,26.35
2018-11-11T14:33:06.914Z,28.32
2018-11-11T14:35:35.116Z,26.52
2018-11-11T14:38:03.332Z,24.90
2018-11-11T14:40:31.575Z,25.05
2018-11-11T14:42:59.787Z,31.85
2018-11-11T14:45:28.302Z,33.35
2018-11-11T14:47:57.199Z,28.23
2018-11-11T14:50:25.943Z,29.63
2018-11-11T14:52:54.291Z,26.02
2018-11-11T14:55:25.115Z,25.40
2018-11-11T14:57:53.343Z,28.77
2018-11-11T15:00:23.469Z,25.80
2018-11-11T15:03:08.824Z,34.20
2018-11-11T15:05:37.040Z,22.95
2018-11-11T15:08:05.408Z,33.23
2018-11-11T15:10:33.622Z,28.80
2018-11-11T15:13:01.867Z,31.95
2018-11-11T15:15:30.082Z,33.42
2018-11-11T15:17:59.946Z,28.07
2018-11-11T15:20:28.230Z,24.18
2018-11-11T15:22:56.443Z,24.75
2018-11-11T15:25:26.147Z,29.98
2018-11-11T15:27:54.320Z,25.12
2018-11-11T15:30:23.933Z,34.23
2018-11-11T15:32:52.955Z,23.67
2018-11-11T15:35:21.186Z,24.95
2018-11-11T15:37:49.410Z,30.72
2018-11-11T15:40:23.978Z,30.55
2018-11-11T15:42:52.215Z,23.77
2018-11-11T15:45:22.981Z,29.90
2018-11-11T15:47:51.220Z,21.35
2018-11-11T15:50:21.545Z,32.17
2018-11-11T15:52:52.124Z,30.10
2018-11-11T15:55:21.278Z,34.23
2018-11-11T15:57:49.490Z,30.45
2018-11-11T16:00:20.851Z,27.20
2018-11-11T16:02:49.068Z,22.10
2018-11-11T16:05:17.985Z,23.07
2018-11-11T16:07:47.118Z,34.25
2018-11-11T16:10:20.042Z,25.68
2018-11-11T16:12:48.734Z,31.70
2018-11-11T16:15:19.068Z,25.75
2018-11-11T16:17:49.187Z,26.15
2018-11-11T16:20:20.213Z,34.20
2018-11-11T16:22:49.427Z,23.42
2018-11-11T16:25:17.727Z,22.07
2018-11-11T16:27:46.987Z,25.80
2018-11-11T16:30:17.578Z,25.40
2018-11-11T16:32:46.223Z,26.57
2018-11-11T16:35:15.740Z,19.85
2018-11-11T16:37:44.013Z,25.70
2018-11-11T16:40:13.918Z,22.67
2018-11-11T16:42:42.637Z,19.23
2018-11-11T16:45:11.930Z,16.30
2018-11-11T16:47:40.159Z,23.15
2018-11-11T16:50:09.816Z,23.00
2018-11-11T16:52:38.593Z,28.60
2018-11-11T16:55:08.331Z,30.75
2018-11-11T16:57:36.530Z,30.30
2018-11-11T17:00:05.798Z,41.02
2018-11-11T17:02:34.017Z,25.95
2018-11-11T17:05:02.231Z,23.83
2018-11-11T17:07:30.938Z,29.95
2018-11-11T17:09:59.146Z,24.23
2018-11-11T17:12:27.369Z,31.25
2018-11-11T17:14:55.705Z,29.23
2018-11-11T17:17:24.014Z,32.50
2018-11-11T17:19:52.392Z,33.45
2018-11-11T17:22:20.778Z,30.05
2018-11-11T17:24:48.987Z,34.75
2018-11-11T17:27:17.289Z,29.37
2018-11-11T17:29:45.553Z,27.27
2018-11-11T17:32:13.790Z,30.92
2018-11-11T17:34:41.997Z,26.57
2018-11-11T17:37:10.211Z,28.32
2018-11-11T17:39:38.439Z,44.77
2018-11-11T17:42:06.694Z,28.77
2018-11-11T17:44:34.911Z,31.40
2018-11-11T17:47:03.136Z,25.05
2018-11-11T17:49:31.347Z,24.77
2018-11-11T17:51:59.618Z,25.55
2018-11-11T17:54:27.791Z,29.10
2018-11-11T17:56:56.025Z,30.25
2018-11-11T17:59:24.638Z,24.55
2018-11-11T18:01:52.863Z,23.45
2018-11-11T18:04:21.075Z,31.07
2018-11-11T18:06:49.299Z,30.08
2018-11-11T18:09:17.515Z,22.65
2018-11-11T18:11:45.721Z,27.65
2018-11-11T18:14:13.973Z,27.13
2018-11-11T18:16:42.177Z,42.60
2018-11-11T18:19:10.421Z,31.65
2018-11-11T18:21:38.639Z,32.10
2018-11-11T18:24:06.859Z,26.65
2018-11-11T18:26:35.327Z,34.00
2018-11-11T18:29:03.511Z,33.73
2018-11-11T18:31:31.804Z,48.42
2018-11-11T18:34:00.039Z,30.82
2018-11-11T18:36:28.279Z,27.32
2018-11-11T18:38:56.927Z,28.15
2018-11-11T18:41:25.169Z,27.35
2018-11-11T18:43:53.370Z,31.25
2018-11-11T18:46:21.588Z,32.42
2018-11-11T18:48:49.812Z,39.60
2018-11-11T18:51:18.026Z,43.17
2018-11-11T18:53:46.315Z,28.02
2018-11-11T18:56:14.488Z,31.25
2018-11-11T18:58:42.698Z,31.27
2018-11-11T19:01:10.917Z,27.98
2018-11-11T19:03:39.183Z,29.37
2018-11-11T19:06:07.827Z,43.33
2018-11-11T19:08:36.377Z,30.25
2018-11-11T19:11:05.538Z,28.45
2018-11-11T19:13:33.944Z,35.25
2018-11-11T19:16:02.495Z,40.00
2018-11-11T19:18:31.052Z,41.58
2018-11-11T19:20:59.680Z,30.05
2018-11-11T19:23:28.189Z,37.15
2018-11-11T19:25:56.731Z,34.63
2018-11-11T19:28:25.296Z,47.58
2018-11-11T19:30:53.891Z,34.43
2018-11-11T19:33:22.453Z,33.67
2018-11-11T19:35:51.031Z,25.48
2018-11-11T19:38:19.575Z,29.75
2018-11-11T19:40:48.127Z,34.48
2018-11-11T19:43:16.674Z,30.80
2018-11-11T19:45:45.232Z,57.60
2018-11-11T19:48:13.840Z,33.00
2018-11-11T19:50:42.365Z,32.55
2018-11-11T19:53:10.946Z,35.68
2018-11-11T19:55:39.545Z,25.80
2018-11-11T19:58:08.114Z,25.92
2018-11-11T20:00:36.651Z,32.60
2018-11-11T20:03:06.090Z,28.70
2018-11-11T20:05:34.653Z,24.00
2018-11-11T20:08:03.211Z,26.35
2018-11-11T20:10:32.089Z,17.25
2018-11-11T20:13:01.524Z,25.57
2018-11-11T20:15:31.347Z,23.35
2018-11-11T20:17:59.933Z,35.00
2018-11-11T20:20:30.167Z,23.70
2018-11-11T20:22:58.715Z,34.95
2018-11-11T20:25:27.254Z,25.95
2018-11-11T20:27:55.821Z,34.33
2018-11-11T20:30:26.011Z,31.05
2018-11-11T20:32:54.562Z,33.90
2018-11-11T20:35:24.949Z,35.10
2018-11-11T20:37:53.640Z,27.50
2018-11-11T20:40:23.515Z,22.25
2018-11-11T20:42:52.580Z,34.55
2018-11-11T20:45:22.632Z,29.60
2018-11-11T20:47:52.040Z,28.90
2018-11-11T20:50:22.047Z,26.70
2018-11-11T20:52:52.072Z,29.02
2018-11-11T20:55:21.460Z,31.60
2018-11-11T20:57:50.027Z,32.90
2018-11-11T21:00:20.067Z,20.27
2018-11-11T21:02:48.677Z,27.15
2018-11-11T21:05:18.592Z,20.90
2018-11-11T21:07:47.187Z,24.60
2018-11-11T21:10:17.339Z,25.57
2018-11-11T21:12:45.875Z,26.65
2018-11-11T21:15:15.875Z,21.05
2018-11-11T21:17:44.971Z,17.37
2018-11-11T21:20:14.834Z,17.70
2018-11-11T21:22:43.987Z,13.72
2018-11-11T21:25:13.105Z,19.57
2018-11-11T21:27:42.399Z,12.93
2018-11-11T21:30:28.431Z,12.15
2018-11-11T21:32:57.000Z,10.65
2018-11-11T21:35:25.963Z,10.35
2018-11-11T21:37:54.562Z,11.00
2018-11-11T21:40:24.439Z,11.38
2018-11-11T21:42:53.861Z,6.37
2018-11-11T21:45:23.484Z,10.10
2018-11-11T21:47:52.056Z,13.90
2018-11-11T21:50:22.863Z,8.33
2018-11-11T21:53:09.938Z,7.87
2018-11-11T21:55:38.414Z,9.70
2018-11-11T21:58:06.981Z,13.60
2018-11-11T22:00:35.527Z,9.48
2018-11-11T22:03:04.347Z,10.60
2018-11-11T22:05:32.867Z,10.70
2018-11-11T22:08:01.409Z,11.15
2018-11-11T22:10:29.975Z,11.25
2018-11-11T22:12:58.508Z,10.95
2018-11-11T22:15:27.063Z,13.83
2018-11-11T22:17:55.645Z,9.70
2018-11-11T22:20:24.171Z,15.05
2018-11-11T22:22:52.714Z,13.75
2018-11-11T22:25:21.270Z,18.15
2018-11-11T22:27:49.842Z,17.80
2018-11-11T22:30:18.393Z,19.77
2018-11-11T22:32:46.926Z,10.78
2018-11-11T22:35:15.476Z,15.98
2018-11-11T22:37:44.015Z,15.60
2018-11-11T22:40:13.787Z,17.27
2018-11-11T22:42:42.336Z,13.78
2018-11-11T22:45:13.525Z,15.15
2018-11-11T22:47:42.536Z,25.55
2018-11-11T22:50:14.602Z,17.48
2018-11-11T22:52:43.343Z,14.25
2018-11-11T22:55:12.163Z,15.50
2018-11-11T22:57:41.559Z,12.55
2018-11-11T23:00:17.596Z,13.48
2018-11-11T23:02:46.159Z,15.65
2018-11-11T23:05:15.802Z,11.12
2018-11-11T23:07:44.906Z,12.05
2018-11-11T23:10:13.455Z,11.28
2018-11-11T23:12:41.995Z,9.15
2018-11-11T23:15:12.299Z,10.08
2018-11-11T23:17:40.856Z,12.50
2018-11-11T23:20:10.874Z,11.57
2018-11-11T23:22:39.918Z,9.48
2018-11-11T23:25:10.984Z,10.48
2018-11-11T23:27:39.526Z,9.65
2018-11-11T23:30:13.728Z,11.43
2018-11-11T23:32:42.284Z,8.73
2018-11-11T23:35:11.635Z,23.45
2018-11-11T23:37:40.572Z,8.75
2018-11-11T23:40:11.317Z,11.33
2018-11-11T23:42:40.336Z,15.30
2018-11-11T23:45:09.115Z,16.05
2018-11-11T23:47:37.961Z,18.67
2018-11-11T23:50:09.563Z,16.35
2018-11-11T23:52:38.125Z,16.12
2018-11-11T23:55:08.860Z,13.28
2018-11-11T23:57:37.410Z,22.75
